Time;durP1;ratioP1;P1;durP2;ratioP2;P2;SDS_P1;SDS_P2;PMS_P1;PMS_P2;Temp;Humidity;BMP_temperature;BMP_pressure;BME280_temperature;BME280_humidity;BME280_pressure;Samples;Min_cycle;Max_cycle;Signal;HPM_P1;HPM_P2
2023/11/02 00:02:25;;;;;;;5.32;1.00;;;13.10;99.90;;;;;;4971649;28;20180;-76
2023/11/02 00:04:51;;;;;;;1.58;0.70;;;13.10;99.90;;;;;;4971074;28;20731;-75
2023/11/02 00:07:18;;;;;;;4.80;0.90;;;13.10;99.90;;;;;;4972448;28;20203;-76
2023/11/02 00:09:44;;;;;;;1.90;0.80;;;13.20;99.90;;;;;;4970612;28;20721;-76
2023/11/02 00:12:18;;;;;;;3.87;0.80;;;13.20;99.90;;;;;;4972656;28;20989;-76
2023/11/02 00:14:46;;;;;;;2.33;0.70;;;13.20;99.90;;;;;;4972436;28;20586;-76
2023/11/02 00:17:35;;;;;;;3.10;0.70;;;13.30;99.90;;;;;;4972526;28;20994;-76
2023/11/02 00:20:07;;;;;;;2.00;0.77;;;13.30;99.90;;;;;;4972359;28;20996;-75
2023/11/02 00:22:48;;;;;;;2.63;0.60;;;13.40;99.90;;;;;;4971244;28;20603;-76
2023/11/02 00:25:39;;;;;;;1.83;0.70;;;13.40;99.90;;;;;;4972316;28;20579;-76
2023/11/02 00:28:08;;;;;;;2.60;0.70;;;13.40;99.90;;;;;;4963341;28;20240;-76
2023/11/02 00:30:37;;;;;;;1.53;0.53;;;13.60;99.90;;;;;;4954908;28;20631;-76
2023/11/02 00:33:04;;;;;;;1.60;0.70;;;13.70;99.90;;;;;;4971337;28;20685;-75
2023/11/02 00:35:29;;;;;;;2.40;0.70;;;13.80;99.90;;;;;;4971318;28;20595;-76
2023/11/02 00:37:57;;;;;;;3.50;0.60;;;13.80;99.90;;;;;;4978888;23;21449;-77
2023/11/02 00:40:55;;;;;;;4.17;0.90;;;13.80;99.90;;;;;;4967235;28;20183;-77
2023/11/02 00:43:33;;;;;;;3.20;0.70;;;13.90;99.90;;;;;;4960935;28;20587;-77
2023/11/02 00:46:07;;;;;;;1.67;0.67;;;13.90;99.90;;;;;;4951704;28;20630;-77
2023/11/02 00:48:34;;;;;;;1.70;0.60;;;13.90;99.90;;;;;;4935814;28;20631;-77
2023/11/02 00:51:29;;;;;;;2.07;0.67;;;13.90;99.90;;;;;;4951399;28;21310;-76
2023/11/02 00:53:56;;;;;;;2.53;0.60;;;13.80;99.90;;;;;;4961972;28;20596;-77
2023/11/02 00:56:24;;;;;;;2.70;0.70;;;13.90;99.90;;;;;;4960429;28;20619;-77
2023/11/02 00:58:53;;;;;;;1.77;0.60;;;14.00;99.90;;;;;;4962566;28;20584;-76
2023/11/02 01:01:21;;;;;;;2.20;0.70;;;14.00;99.90;;;;;;4954586;28;20641;-77
2023/11/02 01:03:52;;;;;;;2.73;0.90;;;14.00;99.90;;;;;;4962585;28;20583;-77
2023/11/02 01:06:21;;;;;;;2.63;0.50;;;14.00;99.90;;;;;;4970140;28;20591;-77
2023/11/02 01:09:16;;;;;;;3.83;0.90;;;14.00;99.90;;;;;;4970377;28;20689;-77
2023/11/02 01:11:42;;;;;;;5.10;0.80;;;14.00;99.90;;;;;;4947746;28;20647;-77
2023/11/02 01:14:50;;;;;;;1.30;0.60;;;14.00;99.90;;;;;;4962746;28;20614;-77
2023/11/02 01:17:34;;;;;;;4.00;0.60;;;14.00;99.90;;;;;;4971039;28;20623;-77
2023/11/02 01:20:14;;;;;;;2.70;0.60;;;14.00;99.90;;;;;;4970469;28;20590;-77
2023/11/02 01:22:50;;;;;;;5.77;1.50;;;14.00;99.90;;;;;;4946679;28;20587;-76
2023/11/02 01:25:16;;;;;;;2.70;1.00;;;14.00;99.90;;;;;;4951168;28;20628;-76
2023/11/02 01:27:42;;;;;;;3.67;0.60;;;14.10;99.90;;;;;;4958576;28;20652;-76
2023/11/02 01:30:20;;;;;;;2.53;0.87;;;14.10;99.90;;;;;;4958769;28;20211;-76
2023/11/02 01:32:46;;;;;;;3.63;0.80;;;14.00;99.90;;;;;;4923101;28;20598;-76
2023/11/02 01:35:42;;;;;;;2.67;0.80;;;14.00;99.90;;;;;;4966561;28;21130;-76
2023/11/02 01:38:15;;;;;;;2.33;0.70;;;14.00;99.90;;;;;;4954636;28;20203;-77
2023/11/02 01:40:55;;;;;;;2.53;0.60;;;14.00;99.90;;;;;;4970387;28;20609;-76
2023/11/02 01:43:39;;;;;;;3.30;0.70;;;14.00;99.90;;;;;;4929612;29;20604;-76
2023/11/02 01:46:15;;;;;;;3.40;0.80;;;14.00;99.90;;;;;;4946799;28;20601;-76
2023/11/02 01:48:50;;;;;;;3.50;0.80;;;14.00;99.90;;;;;;4954750;28;20600;-76
2023/11/02 01:51:30;;;;;;;3.00;0.70;;;14.00;99.90;;;;;;4951439;28;20634;-76
2023/11/02 01:54:06;;;;;;;2.03;0.80;;;14.00;99.90;;;;;;4966523;28;20623;-76
2023/11/02 01:56:53;;;;;;;2.73;0.80;;;14.00;99.90;;;;;;4974225;28;20622;-76
2023/11/02 01:59:36;;;;;;;3.90;1.30;;;14.00;99.90;;;;;;4957914;28;20587;-76
2023/11/02 02:02:11;;;;;;;1.70;0.67;;;14.00;99.90;;;;;;4973897;28;20591;-76
2023/11/02 02:04:44;;;;;;;2.67;0.60;;;14.00;99.90;;;;;;4975189;28;20582;-76
2023/11/02 02:07:18;;;;;;;2.03;0.70;;;14.00;99.90;;;;;;4957973;28;21251;-76
2023/11/02 02:09:47;;;;;;;1.73;0.70;;;14.00;99.90;;;;;;4958703;28;20985;-76
2023/11/02 02:12:29;;;;;;;4.47;0.90;;;14.00;99.90;;;;;;4966360;28;20594;-77
2023/11/02 02:15:10;;;;;;;2.83;0.87;;;13.90;99.90;;;;;;4957599;28;20595;-77
2023/11/02 02:17:53;;;;;;;1.73;0.73;;;14.00;99.90;;;;;;4950399;28;20631;-77
2023/11/02 02:20:30;;;;;;;2.00;0.60;;;14.00;99.90;;;;;;4954231;28;20619;-77
2023/11/02 02:23:15;;;;;;;3.33;0.80;;;14.00;99.90;;;;;;4938367;28;20604;-77
2023/11/02 02:26:17;;;;;;;3.40;0.80;;;14.00;99.90;;;;;;4945746;28;20605;-77
2023/11/02 02:29:17;;;;;;;9.63;0.93;;;14.00;99.90;;;;;;4961839;28;20606;-76
2023/11/02 02:32:01;;;;;;;2.73;0.70;;;13.90;99.90;;;;;;4956793;28;20674;-76
2023/11/02 02:34:54;;;;;;;2.30;0.80;;;14.00;99.90;;;;;;4951853;28;20649;-77
2023/11/02 02:37:49;;;;;;;5.00;1.10;;;13.90;99.90;;;;;;4973159;28;20627;-77
2023/11/02 02:40:25;;;;;;;3.20;0.90;;;13.90;99.90;;;;;;4949331;28;21032;-76
2023/11/02 02:42:53;;;;;;;2.83;0.70;;;13.90;99.90;;;;;;4940367;28;20603;-76
2023/11/02 02:45:18;;;;;;;6.30;1.00;;;13.90;99.90;;;;;;4966448;28;20583;-77
2023/11/02 02:47:46;;;;;;;1.70;0.67;;;14.00;99.90;;;;;;4961377;28;20626;-76
2023/11/02 02:50:15;;;;;;;4.13;0.97;;;14.00;99.90;;;;;;4954894;28;20263;-77
2023/11/02 02:52:44;;;;;;;3.10;1.23;;;14.00;99.90;;;;;;4961538;28;20612;-76
2023/11/02 02:55:12;;;;;;;4.00;0.70;;;14.00;99.90;;;;;;4956762;28;20587;-76
2023/11/02 02:57:43;;;;;;;4.00;0.80;;;14.00;99.90;;;;;;4972660;28;20611;-76
2023/11/02 03:00:13;;;;;;;3.37;1.20;;;14.00;99.90;;;;;;4964937;28;20595;-77
2023/11/02 03:02:41;;;;;;;3.33;0.80;;;14.00;99.90;;;;;;4971882;28;20595;-76
2023/11/02 03:05:10;;;;;;;3.10;0.90;;;14.00;99.90;;;;;;4972605;28;20598;-77
2023/11/02 03:07:36;;;;;;;1.87;0.80;;;14.10;99.90;;;;;;4967256;28;20623;-76
2023/11/02 03:10:07;;;;;;;6.80;1.00;;;14.10;99.90;;;;;;4963009;28;21203;-77
2023/11/02 03:12:36;;;;;;;1.93;0.90;;;14.10;99.90;;;;;;4966557;28;20622;-76
2023/11/02 03:15:06;;;;;;;2.17;0.73;;;14.10;99.90;;;;;;4971371;28;20591;-76
2023/11/02 03:17:35;;;;;;;3.77;1.00;;;14.10;99.90;;;;;;4960327;28;20639;-77
2023/11/02 03:20:01;;;;;;;7.23;0.90;;;14.00;99.90;;;;;;4945165;28;20653;-76
2023/11/02 03:22:27;;;;;;;3.43;0.90;;;14.10;99.90;;;;;;4945486;28;20596;-76
2023/11/02 03:24:58;;;;;;;4.37;0.80;;;14.10;99.90;;;;;;4955258;28;20196;-76
2023/11/02 03:27:39;;;;;;;1.40;0.60;;;14.20;99.90;;;;;;4954342;28;20624;-76
2023/11/02 03:30:38;;;;;;;3.57;0.70;;;14.10;99.90;;;;;;4921320;28;20639;-77
2023/11/02 03:33:13;;;;;;;3.40;1.00;;;14.10;99.90;;;;;;4947976;28;20600;-76
2023/11/02 03:36:20;;;;;;;3.30;0.80;;;14.20;99.90;;;;;;4964175;28;20591;-76
2023/11/02 03:39:11;;;;;;;1.60;0.70;;;14.00;99.90;;;;;;4963688;28;20607;-77
2023/11/02 03:41:54;;;;;;;2.73;0.80;;;14.00;99.90;;;;;;4959506;28;20597;-76
2023/11/02 03:44:35;;;;;;;2.40;0.80;;;14.10;99.90;;;;;;4956122;28;20595;-76
2023/11/02 03:47:22;;;;;;;4.07;0.80;;;14.10;99.90;;;;;;4971765;28;20623;-76
2023/11/02 03:50:00;;;;;;;4.80;1.17;;;14.10;99.90;;;;;;4972297;28;20651;-76
2023/11/02 03:52:58;;;;;;;3.00;0.70;;;14.10;99.90;;;;;;4942902;28;20579;-76
2023/11/02 03:55:55;;;;;;;3.23;0.60;;;14.10;99.90;;;;;;4954656;28;20646;-77
2023/11/02 03:58:52;;;;;;;3.43;0.70;;;14.10;99.90;;;;;;4949841;28;21090;-76
2023/11/02 04:01:27;;;;;;;2.87;0.80;;;14.20;99.90;;;;;;4967941;28;21200;-77
2023/11/02 04:04:02;;;;;;;4.20;0.70;;;14.20;99.90;;;;;;4939680;28;20598;-77
2023/11/02 04:07:01;;;;;;;3.80;0.80;;;14.10;99.90;;;;;;4973155;28;20629;-77
2023/11/02 04:09:34;;;;;;;2.25;0.60;;;14.10;99.90;;;;;;4972427;28;20694;-77
2023/11/02 04:12:18;;;;;;;2.13;0.83;;;14.10;99.90;;;;;;4955714;28;20176;-77
2023/11/02 04:14:48;;;;;;;3.23;0.80;;;14.00;99.90;;;;;;4970961;28;20579;-76
2023/11/02 04:17:14;;;;;;;5.10;0.80;;;14.10;99.90;;;;;;4972076;28;20595;-77
2023/11/02 04:19:39;;;;;;;5.30;0.80;;;14.20;99.90;;;;;;4964923;28;20592;-77
2023/11/02 04:22:07;;;;;;;1.30;0.60;;;14.10;99.90;;;;;;4969590;28;20625;-77
2023/11/02 04:24:33;;;;;;;3.10;0.90;;;14.10;99.90;;;;;;4972613;28;20167;-77
2023/11/02 04:26:59;;;;;;;2.70;0.70;;;14.10;99.90;;;;;;4955129;28;21235;-77
2023/11/02 04:29:24;;;;;;;4.80;0.70;;;14.10;99.90;;;;;;4970879;28;20578;-77
2023/11/02 04:31:50;;;;;;;3.30;0.70;;;14.10;99.90;;;;;;4963791;28;20223;-75
2023/11/02 04:34:16;;;;;;;1.83;0.70;;;14.20;99.90;;;;;;4972433;28;20199;-75
2023/11/02 04:36:42;;;;;;;3.50;0.80;;;14.20;99.90;;;;;;4957901;28;20218;-75
2023/11/02 04:39:07;;;;;;;3.33;0.90;;;14.20;99.90;;;;;;4971486;28;20589;-75
2023/11/02 04:41:33;;;;;;;2.90;0.80;;;14.10;99.90;;;;;;4971196;28;20187;-75
2023/11/02 04:44:00;;;;;;;1.70;0.80;;;14.10;99.90;;;;;;4971282;28;20183;-75
2023/11/02 04:46:25;;;;;;;8.03;0.70;;;14.00;99.90;;;;;;4970541;28;20238;-75
2023/11/02 04:48:51;;;;;;;2.33;0.70;;;14.00;99.90;;;;;;4970770;28;20630;-75
2023/11/02 04:51:17;;;;;;;2.07;0.90;;;14.00;99.90;;;;;;4951775;28;20741;-75
2023/11/02 04:53:42;;;;;;;2.30;0.70;;;13.80;99.90;;;;;;4965998;28;20575;-75
2023/11/02 04:56:08;;;;;;;2.40;0.70;;;13.80;99.90;;;;;;4970675;28;20175;-75
2023/11/02 04:58:34;;;;;;;6.53;0.90;;;13.80;99.90;;;;;;4970656;28;20214;-75
2023/11/02 05:01:00;;;;;;;2.90;1.07;;;13.50;99.90;;;;;;4972042;28;20597;-75
2023/11/02 05:03:26;;;;;;;1.40;0.60;;;13.50;99.90;;;;;;4970388;28;20176;-75
2023/11/02 05:05:52;;;;;;;1.63;0.60;;;13.40;99.90;;;;;;4954724;28;20642;-75
2023/11/02 05:08:17;;;;;;;4.63;1.00;;;13.30;99.90;;;;;;4971830;28;20203;-75
2023/11/02 05:10:43;;;;;;;2.13;0.67;;;13.20;99.90;;;;;;4962967;28;20215;-75
2023/11/02 05:13:09;;;;;;;2.57;1.10;;;13.20;99.90;;;;;;4972327;28;20270;-75
2023/11/02 05:15:35;;;;;;;4.13;0.90;;;13.30;99.90;;;;;;4972674;28;20184;-76
2023/11/02 05:18:00;;;;;;;3.37;0.70;;;13.20;99.90;;;;;;4975016;28;20873;-75
2023/11/02 05:20:27;;;;;;;1.70;0.60;;;13.30;99.90;;;;;;4979062;28;20179;-76
2023/11/02 05:22:53;;;;;;;1.57;0.50;;;13.30;99.90;;;;;;4971435;28;20217;-75
2023/11/02 05:25:19;;;;;;;3.30;0.90;;;13.30;99.90;;;;;;4968376;28;20583;-75
2023/11/02 05:27:45;;;;;;;3.43;0.60;;;13.30;99.90;;;;;;4968257;28;21007;-75
2023/11/02 05:30:10;;;;;;;4.77;0.90;;;13.40;99.90;;;;;;4971670;28;20282;-75
2023/11/02 05:32:38;;;;;;;2.73;0.70;;;13.40;99.90;;;;;;4966866;28;20167;-75
2023/11/02 05:35:04;;;;;;;2.13;0.80;;;13.50;99.90;;;;;;4942705;28;20231;-75
2023/11/02 05:37:31;;;;;;;2.75;0.65;;;13.50;99.90;;;;;;4974407;28;20653;-75
2023/11/02 05:39:57;;;;;;;3.40;1.03;;;13.50;99.90;;;;;;4975648;28;20180;-75
2023/11/02 05:42:23;;;;;;;2.53;0.70;;;13.60;99.90;;;;;;4957939;28;20685;-75
2023/11/02 05:44:48;;;;;;;1.70;0.60;;;13.70;99.90;;;;;;4974044;28;20662;-75
2023/11/02 05:47:14;;;;;;;3.30;0.60;;;13.80;99.90;;;;;;4964605;28;21052;-75
2023/11/02 05:49:40;;;;;;;3.60;0.67;;;13.80;99.90;;;;;;4974065;28;20192;-75
2023/11/02 05:52:05;;;;;;;1.30;0.53;;;13.80;99.90;;;;;;4937525;28;20862;-75
2023/11/02 05:54:31;;;;;;;1.43;0.50;;;13.90;99.90;;;;;;4975688;28;20534;-77
2023/11/02 05:56:57;;;;;;;1.33;0.50;;;14.00;99.90;;;;;;4978362;28;20203;-78
2023/11/02 05:59:23;;;;;;;1.83;0.60;;;14.00;99.90;;;;;;4985118;28;20247;-79
2023/11/02 06:01:49;;;;;;;1.70;0.60;;;14.10;99.90;;;;;;4961248;28;20638;-80
2023/11/02 06:04:14;;;;;;;2.17;0.70;;;14.10;99.90;;;;;;4974249;28;20255;-79
2023/11/02 06:06:40;;;;;;;1.50;0.60;;;14.10;99.90;;;;;;4967402;28;20637;-79
2023/11/02 06:09:07;;;;;;;1.30;0.50;;;14.10;99.90;;;;;;4977585;28;20215;-78
2023/11/02 06:11:33;;;;;;;2.07;0.50;;;14.10;99.90;;;;;;4977034;28;20304;-78
2023/11/02 06:13:59;;;;;;;1.83;0.60;;;14.20;99.90;;;;;;4989983;28;20598;-79
2023/11/02 06:16:25;;;;;;;2.23;0.60;;;14.20;99.90;;;;;;4964504;28;20626;-78
2023/11/02 06:18:51;;;;;;;3.63;0.80;;;14.20;99.90;;;;;;4965442;28;20220;-79
2023/11/02 06:21:17;;;;;;;2.70;0.70;;;14.20;99.90;;;;;;4977485;28;20602;-79
2023/11/02 06:23:43;;;;;;;2.17;0.60;;;14.20;99.90;;;;;;4977404;28;20210;-79
2023/11/02 06:26:08;;;;;;;1.70;0.73;;;14.20;99.90;;;;;;4971735;28;20188;-80
2023/11/02 06:28:34;;;;;;;2.23;0.90;;;14.20;99.90;;;;;;4971523;28;20952;-79
2023/11/02 06:30:59;;;;;;;4.00;0.70;;;14.20;99.90;;;;;;4980857;28;20961;-79
2023/11/02 06:33:30;;;;;;;2.17;0.77;;;14.20;99.90;;;;;;4964969;28;20183;-80
2023/11/02 06:35:56;;;;;;;1.50;0.60;;;14.20;99.90;;;;;;4971548;28;20255;-80
2023/11/02 06:38:22;;;;;;;4.13;0.70;;;14.10;99.90;;;;;;4977467;28;20650;-80
2023/11/02 06:40:49;;;;;;;2.90;0.50;;;14.10;99.90;;;;;;4976629;28;20187;-80
2023/11/02 06:43:14;;;;;;;4.70;0.80;;;14.10;99.90;;;;;;4965446;28;20622;-79
2023/11/02 06:45:40;;;;;;;3.23;0.67;;;14.10;99.90;;;;;;4966511;28;20627;-78
2023/11/02 06:48:06;;;;;;;4.63;0.70;;;14.10;99.90;;;;;;4967216;28;20275;-79
2023/11/02 06:50:32;;;;;;;1.60;0.67;;;14.10;99.90;;;;;;4968642;28;20215;-80
2023/11/02 06:52:58;;;;;;;1.73;0.50;;;14.10;99.90;;;;;;4963078;28;20522;-79
2023/11/02 06:55:23;;;;;;;2.90;0.60;;;14.20;99.90;;;;;;4959476;28;20626;-81
2023/11/02 06:57:49;;;;;;;1.80;0.63;;;14.20;99.90;;;;;;4969707;28;20618;-81
2023/11/02 07:00:16;;;;;;;3.47;0.53;;;14.30;99.90;;;;;;4964435;28;20551;-79
2023/11/02 07:02:42;;;;;;;6.40;0.60;;;14.30;99.90;;;;;;4973940;28;20188;-81
2023/11/02 07:05:09;;;;;;;1.73;0.60;;;14.40;99.90;;;;;;4947911;28;20598;-79
2023/11/02 07:07:40;;;;;;;1.80;0.50;;;14.40;99.90;;;;;;4963645;28;20608;-78
2023/11/02 07:10:08;;;;;;;1.60;0.50;;;14.30;99.90;;;;;;4969172;28;20705;-79
2023/11/02 07:12:35;;;;;;;3.10;1.03;;;14.30;99.90;;;;;;4962622;28;20628;-79
2023/11/02 07:15:00;;;;;;;1.90;0.50;;;14.20;99.90;;;;;;4961058;28;21285;-79
2023/11/02 07:17:26;;;;;;;2.33;0.60;;;14.20;99.90;;;;;;4968803;28;20608;-78
2023/11/02 07:19:53;;;;;;;3.10;0.60;;;14.10;99.90;;;;;;4950520;28;20713;-77
2023/11/02 07:22:19;;;;;;;2.07;0.60;;;13.90;99.90;;;;;;4948191;28;20195;-78
2023/11/02 07:24:45;;;;;;;2.37;0.50;;;13.70;99.90;;;;;;4964815;28;20700;-80
2023/11/02 07:27:11;;;;;;;2.20;0.50;;;13.60;99.90;;;;;;4952182;28;20622;-80
2023/11/02 07:29:37;;;;;;;1.90;0.60;;;13.40;99.90;;;;;;4975805;28;20627;-81
2023/11/02 07:32:03;;;;;;;1.50;0.60;;;13.30;99.90;;;;;;4975403;28;20591;-81
2023/11/02 07:34:29;;;;;;;3.22;0.60;;;13.10;99.90;;;;;;4957996;28;20674;-81
2023/11/02 07:36:56;;;;;;;3.00;0.80;;;13.10;99.90;;;;;;4972775;28;20203;-81
2023/11/02 07:39:23;;;;;;;3.07;0.60;;;12.90;99.90;;;;;;4965691;28;20591;-80
2023/11/02 07:41:49;;;;;;;3.20;0.60;;;12.80;99.90;;;;;;4973809;28;20587;-79
2023/11/02 07:44:17;;;;;;;2.85;0.60;;;12.70;99.90;;;;;;4958365;28;20600;-78
2023/11/02 07:46:42;;;;;;;1.47;0.63;;;12.60;99.90;;;;;;4968680;28;20255;-79
2023/11/02 07:49:08;;;;;;;3.90;0.70;;;12.60;99.90;;;;;;4938971;28;20168;-78
2023/11/02 07:51:34;;;;;;;1.50;0.60;;;12.60;99.90;;;;;;4936713;28;20682;-78
2023/11/02 07:54:01;;;;;;;1.20;0.50;;;12.60;99.90;;;;;;4951608;28;20231;-79
2023/11/02 07:56:28;;;;;;;2.00;0.60;;;12.60;99.90;;;;;;4967297;28;20356;-76
2023/11/02 07:58:54;;;;;;;1.47;0.60;;;12.60;99.90;;;;;;4961056;28;20623;-76
2023/11/02 08:01:19;;;;;;;2.20;0.70;;;12.60;99.90;;;;;;4962620;28;20638;-77
2023/11/02 08:03:45;;;;;;;1.70;0.60;;;12.70;99.90;;;;;;4962559;28;20188;-76
2023/11/02 08:06:11;;;;;;;2.03;0.60;;;12.70;99.90;;;;;;4951820;28;20224;-77
2023/11/02 08:08:38;;;;;;;3.83;0.60;;;12.70;99.90;;;;;;4955567;28;20645;-76
2023/11/02 08:11:04;;;;;;;2.00;0.70;;;12.80;99.90;;;;;;4970772;28;20647;-77
2023/11/02 08:13:31;;;;;;;1.40;0.53;;;12.80;99.90;;;;;;4955093;28;20590;-76
2023/11/02 08:15:57;;;;;;;1.50;0.60;;;12.90;99.90;;;;;;4970988;28;20634;-76
2023/11/02 08:18:23;;;;;;;2.80;0.63;;;12.90;99.90;;;;;;4962288;28;20963;-75
2023/11/02 08:20:49;;;;;;;3.90;1.00;;;12.90;99.90;;;;;;4960012;28;20765;-75
2023/11/02 08:23:16;;;;;;;2.70;0.60;;;13.00;99.90;;;;;;4971866;28;20587;-75
2023/11/02 08:25:42;;;;;;;1.83;0.80;;;13.10;99.90;;;;;;4948115;28;20642;-75
2023/11/02 08:28:08;;;;;;;1.20;0.50;;;13.10;99.90;;;;;;4954936;28;21188;-75
2023/11/02 08:30:34;;;;;;;1.70;0.70;;;13.20;99.90;;;;;;4971524;28;20634;-75
2023/11/02 08:32:59;;;;;;;2.10;0.50;;;13.20;99.90;;;;;;4965185;28;20572;-76
2023/11/02 08:35:25;;;;;;;2.50;0.60;;;13.30;99.90;;;;;;4962849;28;20718;-76
2023/11/02 08:37:51;;;;;;;1.50;0.67;;;13.30;99.90;;;;;;4971593;28;20253;-76
2023/11/02 08:40:19;;;;;;;1.60;0.60;;;13.30;99.90;;;;;;4954690;28;20599;-76
2023/11/02 08:42:45;;;;;;;2.50;0.70;;;13.40;99.90;;;;;;4972073;28;20586;-76
2023/11/02 08:45:16;;;;;;;1.70;0.70;;;13.40;99.90;;;;;;4962576;28;20686;-76
2023/11/02 08:47:42;;;;;;;3.50;0.60;;;13.50;99.90;;;;;;4963472;28;20702;-77
2023/11/02 08:50:10;;;;;;;1.50;0.60;;;13.60;99.90;;;;;;4967018;28;20642;-76
2023/11/02 08:52:35;;;;;;;2.77;0.70;;;13.70;99.90;;;;;;4970367;28;20582;-76
2023/11/02 08:55:03;;;;;;;1.50;0.50;;;13.80;99.90;;;;;;4971797;28;20858;-76
2023/11/02 08:57:29;;;;;;;4.80;0.60;;;13.90;99.90;;;;;;4964359;28;20192;-76
2023/11/02 08:59:58;;;;;;;2.47;0.73;;;14.00;99.90;;;;;;4973778;28;20615;-77
2023/11/02 09:02:25;;;;;;;3.30;0.90;;;14.00;99.90;;;;;;4969753;28;20591;-76
2023/11/02 09:04:52;;;;;;;2.33;0.57;;;14.20;99.90;;;;;;4970458;28;20599;-76
2023/11/02 09:07:18;;;;;;;1.53;0.60;;;14.30;99.90;;;;;;4944997;28;20754;-76
2023/11/02 09:09:44;;;;;;;2.13;0.60;;;14.40;99.90;;;;;;4955101;28;20579;-76
2023/11/02 09:12:10;;;;;;;1.30;0.67;;;14.40;99.90;;;;;;4956838;28;20615;-77
2023/11/02 09:14:36;;;;;;;2.80;0.60;;;14.50;99.90;;;;;;4962137;28;20172;-76
2023/11/02 09:17:01;;;;;;;1.73;0.90;;;14.50;99.90;;;;;;4956729;28;20616;-76
2023/11/02 09:19:27;;;;;;;2.03;0.60;;;14.60;99.90;;;;;;4960799;28;20280;-76
2023/11/02 09:21:54;;;;;;;2.23;0.70;;;14.70;99.90;;;;;;4954275;28;20183;-75
2023/11/02 09:24:19;;;;;;;2.03;0.60;;;14.80;99.90;;;;;;4971406;28;20190;-76
2023/11/02 09:26:45;;;;;;;1.40;0.60;;;14.90;99.90;;;;;;4959340;28;20619;-76
2023/11/02 09:29:11;;;;;;;2.50;0.90;;;15.00;99.90;;;;;;4950904;28;20216;-75
2023/11/02 09:31:37;;;;;;;1.93;0.60;;;15.20;99.90;;;;;;4940091;28;20638;-75
2023/11/02 09:34:04;;;;;;;3.10;0.80;;;15.30;99.90;;;;;;4970485;28;20953;-75
2023/11/02 09:36:30;;;;;;;1.90;0.60;;;15.40;99.90;;;;;;4974672;28;20734;-75
2023/11/02 09:39:03;;;;;;;2.70;0.70;;;15.50;99.90;;;;;;4971312;28;20586;-75
2023/11/02 09:41:29;;;;;;;2.23;0.70;;;15.60;99.90;;;;;;4970026;28;20194;-76
2023/11/02 09:43:56;;;;;;;3.40;0.60;;;15.70;99.90;;;;;;4971419;28;20587;-75
2023/11/02 09:46:23;;;;;;;1.67;0.60;;;15.80;99.90;;;;;;4967431;28;20644;-76
2023/11/02 09:48:49;;;;;;;1.70;0.67;;;15.90;99.90;;;;;;4952030;28;20922;-76
2023/11/02 09:51:15;;;;;;;1.93;0.63;;;16.10;99.90;;;;;;4950627;28;20647;-76
2023/11/02 09:53:42;;;;;;;2.13;0.60;;;16.10;99.90;;;;;;4950930;28;20584;-74
2023/11/02 09:56:09;;;;;;;4.00;0.80;;;16.20;99.90;;;;;;4934939;29;20572;-75
2023/11/02 09:58:35;;;;;;;6.10;0.60;;;16.20;99.90;;;;;;4951893;28;20655;-75
2023/11/02 10:01:02;;;;;;;1.83;0.60;;;16.40;99.90;;;;;;4952169;28;20588;-75
2023/11/02 10:03:28;;;;;;;1.97;0.60;;;16.40;99.90;;;;;;4937944;28;20671;-75
2023/11/02 10:05:54;;;;;;;3.30;0.60;;;16.50;99.90;;;;;;4970287;28;20595;-75
2023/11/02 10:08:20;;;;;;;2.37;0.50;;;16.50;99.90;;;;;;4969610;28;20200;-75
2023/11/02 10:10:46;;;;;;;1.73;0.70;;;16.60;99.90;;;;;;4970945;28;21274;-75
2023/11/02 10:13:12;;;;;;;3.10;0.73;;;16.70;99.90;;;;;;4969711;28;20638;-75
2023/11/02 10:15:38;;;;;;;2.10;0.60;;;16.80;99.90;;;;;;4973536;28;20583;-75
2023/11/02 10:18:14;;;;;;;3.63;0.90;;;16.90;99.90;;;;;;4973908;28;20299;-75
2023/11/02 10:20:40;;;;;;;1.70;0.77;;;16.90;99.90;;;;;;4974556;28;20591;-75
2023/11/02 10:23:12;;;;;;;3.43;0.80;;;17.00;99.90;;;;;;4973382;28;20590;-75
2023/11/02 10:25:40;;;;;;;2.00;0.60;;;17.10;99.90;;;;;;4974465;28;20269;-75
2023/11/02 10:28:06;;;;;;;3.20;0.70;;;17.10;99.90;;;;;;4973048;28;20686;-75
2023/11/02 10:30:33;;;;;;;1.90;0.60;;;17.20;99.90;;;;;;4973189;28;21121;-75
2023/11/02 10:33:08;;;;;;;2.27;0.60;;;17.20;99.90;;;;;;4968113;28;20595;-75
2023/11/02 10:35:37;;;;;;;2.27;0.70;;;17.30;99.90;;;;;;4953700;28;20657;-76
2023/11/02 10:38:07;;;;;;;5.50;0.73;;;17.40;99.90;;;;;;4953577;29;20642;-75
2023/11/02 10:40:43;;;;;;;2.10;0.60;;;17.40;99.90;;;;;;4953698;29;21169;-75
2023/11/02 10:43:18;;;;;;;3.93;1.73;;;17.50;99.90;;;;;;4955146;28;20608;-75
2023/11/02 10:45:50;;;;;;;5.37;1.30;;;17.50;99.90;;;;;;4966395;28;20578;-75
2023/11/02 10:48:17;;;;;;;5.40;0.70;;;17.60;99.90;;;;;;4972347;28;20628;-74
2023/11/02 10:50:47;;;;;;;1.57;0.50;;;17.60;99.90;;;;;;4968817;28;21200;-75
2023/11/02 10:53:28;;;;;;;9.03;0.70;;;17.70;99.90;;;;;;4973446;28;20594;-74
2023/11/02 10:55:59;;;;;;;2.83;0.70;;;17.80;99.90;;;;;;4961647;28;20615;-75
2023/11/02 10:58:26;;;;;;;5.67;0.90;;;17.90;99.90;;;;;;4972480;28;20977;-75
2023/11/02 11:00:53;;;;;;;3.37;0.90;;;18.00;99.90;;;;;;4973988;28;20629;-76
2023/11/02 11:03:21;;;;;;;3.73;0.70;;;18.00;99.90;;;;;;4963532;28;20725;-76
2023/11/02 11:05:48;;;;;;;3.77;1.00;;;18.00;99.90;;;;;;4954622;28;20592;-76
2023/11/02 11:08:15;;;;;;;3.27;0.80;;;18.10;99.90;;;;;;4954512;28;20616;-76
2023/11/02 11:10:43;;;;;;;1.60;0.60;;;18.20;99.90;;;;;;4937463;29;20703;-76
2023/11/02 11:13:10;;;;;;;3.43;1.00;;;18.20;99.90;;;;;;4953663;28;20620;-76
2023/11/02 11:15:36;;;;;;;4.30;0.80;;;18.20;99.90;;;;;;4954705;28;20737;-76
2023/11/02 11:18:06;;;;;;;2.63;0.67;;;18.20;99.90;;;;;;4969705;28;20619;-76
2023/11/02 11:20:32;;;;;;;6.23;0.70;;;18.20;99.90;;;;;;4956381;28;20672;-76
2023/11/02 11:22:58;;;;;;;3.20;0.80;;;18.10;99.90;;;;;;4966937;28;21023;-75
2023/11/02 11:25:25;;;;;;;4.93;0.90;;;18.00;99.90;;;;;;4953304;28;20679;-76
2023/11/02 11:27:51;;;;;;;4.50;0.90;;;18.00;99.90;;;;;;4954403;28;20713;-76
2023/11/02 11:30:19;;;;;;;3.20;0.80;;;18.00;99.90;;;;;;4954279;28;20646;-75
2023/11/02 11:32:45;;;;;;;4.23;0.90;;;18.10;99.90;;;;;;4961799;28;20580;-75
2023/11/02 11:35:17;;;;;;;4.80;0.97;;;18.10;99.90;;;;;;4965783;28;20619;-76
2023/11/02 11:40:26;;;;;;;6.30;0.80;;;18.20;99.90;;;;;;4967667;28;20608;-77
2023/11/02 11:45:36;;;;;;;2.93;0.80;;;18.30;99.90;;;;;;4955652;28;20591;-77
2023/11/02 11:48:03;;;;;;;4.40;0.70;;;18.30;99.90;;;;;;4966008;28;20619;-77
2023/11/02 11:50:40;;;;;;;7.70;0.90;;;18.30;99.90;;;;;;4954753;28;20686;-77
2023/11/02 11:53:11;;;;;;;6.17;0.83;;;18.20;99.90;;;;;;4971774;28;20597;-77
2023/11/02 11:55:37;;;;;;;4.73;0.90;;;18.20;99.90;;;;;;4971802;28;20619;-77
2023/11/02 11:58:06;;;;;;;3.80;1.00;;;18.20;99.90;;;;;;4965579;28;20621;-77
2023/11/02 12:00:32;;;;;;;3.43;1.10;;;18.20;99.90;;;;;;4952225;28;20599;-77
2023/11/02 12:03:04;;;;;;;5.40;0.87;;;18.30;99.90;;;;;;4957089;28;20588;-76
2023/11/02 12:05:41;;;;;;;5.30;0.77;;;18.30;99.90;;;;;;4956732;28;20188;-77
2023/11/02 12:08:08;;;;;;;6.00;1.00;;;18.20;99.90;;;;;;4969997;28;20622;-76
2023/11/02 12:10:48;;;;;;;3.50;0.90;;;18.20;99.90;;;;;;4950291;28;20717;-79
2023/11/02 12:13:13;;;;;;;5.00;1.00;;;18.30;99.90;;;;;;4964416;29;20592;-77
2023/11/02 12:15:57;;;;;;;5.53;1.00;;;18.20;99.90;;;;;;4960024;28;20592;-77
2023/11/02 12:18:28;;;;;;;3.60;1.30;;;18.10;99.90;;;;;;4952258;28;20199;-77
2023/11/02 12:20:56;;;;;;;3.43;1.23;;;18.10;99.90;;;;;;4966738;28;20972;-78
2023/11/02 12:23:35;;;;;;;5.07;0.83;;;18.20;99.90;;;;;;4965766;28;20677;-77
2023/11/02 12:26:03;;;;;;;4.07;0.90;;;18.10;99.90;;;;;;4959644;28;21144;-77
2023/11/02 12:28:38;;;;;;;7.30;0.97;;;18.20;99.90;;;;;;4961108;28;20621;-77
2023/11/02 12:31:04;;;;;;;4.40;0.90;;;18.10;99.90;;;;;;4972814;28;20632;-77
2023/11/02 12:33:32;;;;;;;4.57;0.93;;;18.20;99.90;;;;;;4970914;28;20721;-77
2023/11/02 12:35:59;;;;;;;3.70;0.77;;;18.20;99.90;;;;;;4969822;28;20683;-78
2023/11/02 12:38:37;;;;;;;3.10;1.07;;;18.30;99.90;;;;;;4967653;28;20630;-76
2023/11/02 12:41:05;;;;;;;4.17;0.80;;;18.30;99.90;;;;;;4955192;28;20595;-76
2023/11/02 12:43:34;;;;;;;4.70;0.90;;;18.30;99.90;;;;;;4963052;28;20603;-76
2023/11/02 12:46:08;;;;;;;10.50;1.20;;;18.30;99.90;;;;;;4962470;28;20617;-78
2023/11/02 12:48:36;;;;;;;4.27;1.00;;;18.30;99.90;;;;;;4962427;28;20699;-76
2023/11/02 12:51:22;;;;;;;10.33;1.10;;;18.30;99.90;;;;;;4957256;28;20639;-77
2023/11/02 12:53:49;;;;;;;5.70;0.90;;;18.20;99.90;;;;;;4970982;28;20583;-77
2023/11/02 12:56:25;;;;;;;5.50;1.10;;;18.20;99.90;;;;;;4968105;28;21354;-77
2023/11/02 12:59:01;;;;;;;6.93;1.00;;;18.10;99.90;;;;;;4962419;28;20677;-77
2023/11/02 13:01:53;;;;;;;3.27;1.00;;;18.10;99.90;;;;;;4968367;28;20587;-77
2023/11/02 13:04:28;;;;;;;3.90;1.10;;;18.00;99.90;;;;;;4964963;28;20591;-78
2023/11/02 13:06:56;;;;;;;5.33;0.93;;;17.90;99.90;;;;;;4971537;28;20614;-79
2023/11/02 13:09:26;;;;;;;6.80;1.73;;;18.00;99.90;;;;;;4969698;28;20590;-76
2023/11/02 13:11:53;;;;;;;6.67;1.30;;;17.90;99.90;;;;;;4968592;28;21156;-77